sensor_id;sensor_type;location;lat;lon;timestamp;pressure;altitude;pressure_sealevel;temperature;humidity
18652;BME280;9455;54.302;10.124;2024-03-22T00:02:08;101718.28;;;8.56;100.00
18652;BME280;9455;54.302;10.124;2024-03-22T00:04:34;101710.47;;;8.52;100.00
18652;BME280;9455;54.302;10.124;2024-03-22T00:07:01;101705.41;;;8.50;100.00
18652;BME280;9455;54.302;10.124;2024-03-22T00:09:26;101707.94;;;8.51;100.00
18652;BME280;9455;54.302;10.124;2024-03-22T00:11:53;101705.66;;;8.59;100.00
18652;BME280;9455;54.302;10.124;2024-03-22T00:14:19;101685.81;;;8.51;100.00
18652;BME280;9455;54.302;10.124;2024-03-22T00:16:45;101680.59;;;8.49;100.00
18652;BME280;9455;54.302;10.124;2024-03-22T00:19:12;101673.75;;;8.59;100.00
18652;BME280;9455;54.302;10.124;2024-03-22T00:21:39;101676.22;;;8.62;100.00
18652;BME280;9455;54.302;10.124;2024-03-22T00:24:05;101674.13;;;8.53;100.00
18652;BME280;9455;54.302;10.124;2024-03-22T00:26:31;101668.03;;;8.65;100.00
18652;BME280;9455;54.302;10.124;2024-03-22T00:28:57;101662.06;;;8.62;100.00
18652;BME280;9455;54.302;10.124;2024-03-22T00:31:24;101657.31;;;8.67;100.00
18652;BME280;9455;54.302;10.124;2024-03-22T00:33:50;101656.19;;;8.57;100.00
18652;BME280;9455;54.302;10.124;2024-03-22T00:36:18;101659.69;;;8.57;100.00
18652;BME280;9455;54.302;10.124;2024-03-22T00:38:43;101660.38;;;8.61;100.00
18652;BME280;9455;54.302;10.124;2024-03-22T00:41:10;101637.50;;;8.58;100.00
18652;BME280;9455;54.302;10.124;2024-03-22T00:43:35;101639.09;;;8.61;100.00
18652;BME280;9455;54.302;10.124;2024-03-22T00:46:02;101619.66;;;8.73;100.00
18652;BME280;9455;54.302;10.124;2024-03-22T00:48:28;101619.97;;;8.68;100.00
18652;BME280;9455;54.302;10.124;2024-03-22T00:50:55;101604.97;;;8.67;100.00
18652;BME280;9455;54.302;10.124;2024-03-22T00:53:22;101591.47;;;8.70;100.00
18652;BME280;9455;54.302;10.124;2024-03-22T00:55:49;101587.84;;;8.71;100.00
18652;BME280;9455;54.302;10.124;2024-03-22T00:58:17;101581.03;;;8.67;100.00
18652;BME280;9455;54.302;10.124;2024-03-22T01:00:44;101586.81;;;8.74;100.00
18652;BME280;9455;54.302;10.124;2024-03-22T01:03:10;101583.69;;;8.67;100.00
18652;BME280;9455;54.302;10.124;2024-03-22T01:05:37;101571.47;;;8.65;100.00
18652;BME280;9455;54.302;10.124;2024-03-22T01:08:03;101581.50;;;8.74;100.00
18652;BME280;9455;54.302;10.124;2024-03-22T01:10:32;101583.25;;;8.87;100.00
18652;BME280;9455;54.302;10.124;2024-03-22T01:12:58;101569.34;;;8.70;100.00
18652;BME280;9455;54.302;10.124;2024-03-22T01:15:25;101557.88;;;8.69;100.00
18652;BME280;9455;54.302;10.124;2024-03-22T01:17:50;101562.03;;;8.73;100.00
18652;BME280;9455;54.302;10.124;2024-03-22T01:20:17;101554.44;;;8.67;100.00
18652;BME280;9455;54.302;10.124;2024-03-22T01:22:43;101564.34;;;8.65;100.00
18652;BME280;9455;54.302;10.124;2024-03-22T01:25:09;101561.69;;;8.65;100.00
18652;BME280;9455;54.302;10.124;2024-03-22T01:27:36;101541.47;;;8.63;100.00
18652;BME280;9455;54.302;10.124;2024-03-22T01:30:04;101541.06;;;8.69;100.00
18652;BME280;9455;54.302;10.124;2024-03-22T01:32:30;101531.50;;;8.66;100.00
18652;BME280;9455;54.302;10.124;2024-03-22T01:35:00;101537.53;;;8.68;100.00
18652;BME280;9455;54.302;10.124;2024-03-22T01:37:26;101535.13;;;8.65;100.00
18652;BME280;9455;54.302;10.124;2024-03-22T01:39:52;101533.75;;;8.72;100.00
18652;BME280;9455;54.302;10.124;2024-03-22T01:42:18;101526.19;;;8.79;100.00
18652;BME280;9455;54.302;10.124;2024-03-22T01:44:46;101531.28;;;8.69;100.00
18652;BME280;9455;54.302;10.124;2024-03-22T01:47:12;101538.41;;;8.69;100.00
18652;BME280;9455;54.302;10.124;2024-03-22T01:49:38;101530.41;;;8.69;100.00
18652;BME280;9455;54.302;10.124;2024-03-22T01:52:05;101532.78;;;8.73;100.00
18652;BME280;9455;54.302;10.124;2024-03-22T01:54:32;101530.22;;;8.72;100.00
18652;BME280;9455;54.302;10.124;2024-03-22T01:56:58;101521.94;;;8.76;100.00
18652;BME280;9455;54.302;10.124;2024-03-22T01:59:25;101522.47;;;8.81;100.00
18652;BME280;9455;54.302;10.124;2024-03-22T02:01:53;101502.78;;;8.71;100.00
18652;BME280;9455;54.302;10.124;2024-03-22T02:04:19;101495.34;;;8.76;100.00
18652;BME280;9455;54.302;10.124;2024-03-22T02:06:45;101494.69;;;8.73;100.00
18652;BME280;9455;54.302;10.124;2024-03-22T02:09:12;101490.56;;;8.81;100.00
18652;BME280;9455;54.302;10.124;2024-03-22T02:11:39;101484.06;;;8.85;100.00
18652;BME280;9455;54.302;10.124;2024-03-22T02:14:06;101495.16;;;8.79;100.00
18652;BME280;9455;54.302;10.124;2024-03-22T02:16:32;101493.88;;;8.72;100.00
18652;BME280;9455;54.302;10.124;2024-03-22T02:19:00;101490.66;;;8.80;100.00
18652;BME280;9455;54.302;10.124;2024-03-22T02:21:25;101489.63;;;8.82;100.00
18652;BME280;9455;54.302;10.124;2024-03-22T02:23:53;101487.16;;;8.79;100.00
18652;BME280;9455;54.302;10.124;2024-03-22T02:26:19;101487.78;;;8.83;100.00
18652;BME280;9455;54.302;10.124;2024-03-22T02:28:45;101483.25;;;8.97;100.00
18652;BME280;9455;54.302;10.124;2024-03-22T02:31:11;101474.94;;;8.89;100.00
18652;BME280;9455;54.302;10.124;2024-03-22T02:33:38;101468.97;;;8.86;100.00
18652;BME280;9455;54.302;10.124;2024-03-22T02:36:05;101468.56;;;8.79;100.00
18652;BME280;9455;54.302;10.124;2024-03-22T02:38:32;101466.31;;;8.86;100.00
18652;BME280;9455;54.302;10.124;2024-03-22T02:40:59;101463.03;;;8.95;100.00
18652;BME280;9455;54.302;10.124;2024-03-22T02:43:25;101454.81;;;8.85;100.00
18652;BME280;9455;54.302;10.124;2024-03-22T02:45:51;101449.84;;;8.93;100.00
18652;BME280;9455;54.302;10.124;2024-03-22T02:48:18;101438.53;;;8.90;100.00
18652;BME280;9455;54.302;10.124;2024-03-22T02:50:43;101440.69;;;8.97;100.00
18652;BME280;9455;54.302;10.124;2024-03-22T02:53:10;101433.66;;;8.96;100.00
18652;BME280;9455;54.302;10.124;2024-03-22T02:55:36;101434.91;;;8.91;100.00
18652;BME280;9455;54.302;10.124;2024-03-22T02:58:05;101432.41;;;8.89;100.00
18652;BME280;9455;54.302;10.124;2024-03-22T03:00:31;101431.31;;;8.92;100.00
18652;BME280;9455;54.302;10.124;2024-03-22T03:02:59;101429.19;;;8.97;100.00
18652;BME280;9455;54.302;10.124;2024-03-22T03:05:24;101431.31;;;9.04;100.00
18652;BME280;9455;54.302;10.124;2024-03-22T03:07:51;101431.31;;;9.04;100.00
18652;BME280;9455;54.302;10.124;2024-03-22T03:10:17;101423.44;;;9.03;100.00
18652;BME280;9455;54.302;10.124;2024-03-22T03:12:44;101419.00;;;9.03;100.00
18652;BME280;9455;54.302;10.124;2024-03-22T03:15:11;101417.16;;;9.04;100.00
18652;BME280;9455;54.302;10.124;2024-03-22T03:17:37;101406.72;;;9.13;100.00
18652;BME280;9455;54.302;10.124;2024-03-22T03:20:04;101406.50;;;9.16;100.00
18652;BME280;9455;54.302;10.124;2024-03-22T03:22:35;101398.97;;;9.10;100.00
18652;BME280;9455;54.302;10.124;2024-03-22T03:25:00;101391.72;;;9.12;100.00
18652;BME280;9455;54.302;10.124;2024-03-22T03:27:27;101383.00;;;9.10;100.00
18652;BME280;9455;54.302;10.124;2024-03-22T03:29:53;101384.38;;;9.16;100.00
18652;BME280;9455;54.302;10.124;2024-03-22T03:32:21;101372.97;;;9.14;100.00
18652;BME280;9455;54.302;10.124;2024-03-22T03:34:46;101369.34;;;9.15;100.00
18652;BME280;9455;54.302;10.124;2024-03-22T03:37:14;101377.69;;;9.10;100.00
18652;BME280;9455;54.302;10.124;2024-03-22T03:39:39;101375.31;;;9.18;100.00
18652;BME280;9455;54.302;10.124;2024-03-22T03:42:06;101362.41;;;9.25;100.00
18652;BME280;9455;54.302;10.124;2024-03-22T03:44:32;101366.38;;;9.19;100.00
18652;BME280;9455;54.302;10.124;2024-03-22T03:46:59;101353.06;;;9.19;100.00
18652;BME280;9455;54.302;10.124;2024-03-22T03:49:27;101355.28;;;9.25;100.00
18652;BME280;9455;54.302;10.124;2024-03-22T03:51:53;101348.81;;;9.17;100.00
18652;BME280;9455;54.302;10.124;2024-03-22T03:54:19;101341.47;;;9.20;100.00
18652;BME280;9455;54.302;10.124;2024-03-22T03:56:45;101348.50;;;9.21;100.00
18652;BME280;9455;54.302;10.124;2024-03-22T03:59:11;101356.78;;;9.29;100.00
18652;BME280;9455;54.302;10.124;2024-03-22T04:01:38;101338.69;;;9.22;100.00
18652;BME280;9455;54.302;10.124;2024-03-22T04:04:03;101340.41;;;9.23;100.00
18652;BME280;9455;54.302;10.124;2024-03-22T04:06:31;101331.13;;;9.28;100.00
18652;BME280;9455;54.302;10.124;2024-03-22T04:08:57;101328.69;;;9.25;100.00
18652;BME280;9455;54.302;10.124;2024-03-22T04:11:24;101332.59;;;9.32;100.00
18652;BME280;9455;54.302;10.124;2024-03-22T04:13:50;101327.38;;;9.31;100.00
18652;BME280;9455;54.302;10.124;2024-03-22T04:16:16;101330.38;;;9.26;100.00
18652;BME280;9455;54.302;10.124;2024-03-22T04:18:42;101323.56;;;9.22;100.00
18652;BME280;9455;54.302;10.124;2024-03-22T04:21:09;101328.47;;;9.28;100.00
18652;BME280;9455;54.302;10.124;2024-03-22T04:23:36;101325.91;;;9.27;100.00
18652;BME280;9455;54.302;10.124;2024-03-22T04:26:03;101326.88;;;9.26;100.00
18652;BME280;9455;54.302;10.124;2024-03-22T04:28:29;101317.59;;;9.31;100.00
18652;BME280;9455;54.302;10.124;2024-03-22T04:30:59;101324.41;;;9.35;100.00
18652;BME280;9455;54.302;10.124;2024-03-22T04:33:25;101306.84;;;9.33;100.00
18652;BME280;9455;54.302;10.124;2024-03-22T04:35:53;101308.88;;;9.29;100.00
18652;BME280;9455;54.302;10.124;2024-03-22T04:38:18;101306.31;;;9.28;100.00
18652;BME280;9455;54.302;10.124;2024-03-22T04:40:46;101302.56;;;9.30;100.00
18652;BME280;9455;54.302;10.124;2024-03-22T04:43:14;101303.81;;;9.37;100.00
18652;BME280;9455;54.302;10.124;2024-03-22T04:45:41;101299.34;;;9.38;100.00
18652;BME280;9455;54.302;10.124;2024-03-22T04:48:08;101293.19;;;9.37;100.00
18652;BME280;9455;54.302;10.124;2024-03-22T04:50:34;101291.53;;;9.47;100.00
18652;BME280;9455;54.302;10.124;2024-03-22T04:53:01;101273.28;;;9.43;100.00
18652;BME280;9455;54.302;10.124;2024-03-22T04:55:27;101273.88;;;9.46;100.00
18652;BME280;9455;54.302;10.124;2024-03-22T04:57:55;101279.94;;;9.48;100.00
18652;BME280;9455;54.302;10.124;2024-03-22T05:00:21;101267.94;;;9.43;100.00
18652;BME280;9455;54.302;10.124;2024-03-22T05:02:47;101256.88;;;9.36;100.00
18652;BME280;9455;54.302;10.124;2024-03-22T05:05:13;101255.41;;;9.32;100.00
18652;BME280;9455;54.302;10.124;2024-03-22T05:07:40;101264.53;;;9.41;100.00
18652;BME280;9455;54.302;10.124;2024-03-22T05:10:06;101263.91;;;9.37;100.00
18652;BME280;9455;54.302;10.124;2024-03-22T05:12:34;101270.09;;;9.38;100.00
18652;BME280;9455;54.302;10.124;2024-03-22T05:15:01;101257.31;;;9.43;100.00
18652;BME280;9455;54.302;10.124;2024-03-22T05:17:28;101263.34;;;9.45;100.00
18652;BME280;9455;54.302;10.124;2024-03-22T05:19:55;101245.69;;;9.44;100.00
18652;BME280;9455;54.302;10.124;2024-03-22T05:22:21;101247.75;;;9.51;100.00
18652;BME280;9455;54.302;10.124;2024-03-22T05:24:47;101246.16;;;9.49;100.00
18652;BME280;9455;54.302;10.124;2024-03-22T05:27:14;101252.97;;;9.53;100.00
18652;BME280;9455;54.302;10.124;2024-03-22T05:29:39;101257.56;;;9.51;100.00
18652;BME280;9455;54.302;10.124;2024-03-22T05:32:08;101253.88;;;9.41;100.00
18652;BME280;9455;54.302;10.124;2024-03-22T05:34:33;101253.22;;;9.50;100.00
18652;BME280;9455;54.302;10.124;2024-03-22T05:37:00;101263.44;;;9.43;100.00
18652;BME280;9455;54.302;10.124;2024-03-22T05:39:26;101253.34;;;9.48;100.00
18652;BME280;9455;54.302;10.124;2024-03-22T05:41:53;101244.81;;;9.43;100.00
18652;BME280;9455;54.302;10.124;2024-03-22T05:44:19;101234.91;;;9.45;100.00
18652;BME280;9455;54.302;10.124;2024-03-22T05:46:46;101237.69;;;9.44;100.00
18652;BME280;9455;54.302;10.124;2024-03-22T05:49:13;101240.91;;;9.36;100.00
18652;BME280;9455;54.302;10.124;2024-03-22T05:51:40;101242.00;;;9.34;100.00
18652;BME280;9455;54.302;10.124;2024-03-22T05:54:06;101231.47;;;9.32;100.00
18652;BME280;9455;54.302;10.124;2024-03-22T05:56:32;101227.50;;;9.38;100.00
18652;BME280;9455;54.302;10.124;2024-03-22T05:58:59;101236.84;;;9.43;100.00
18652;BME280;9455;54.302;10.124;2024-03-22T06:01:25;101236.59;;;9.46;100.00
18652;BME280;9455;54.302;10.124;2024-03-22T06:03:51;101243.16;;;9.53;100.00
18652;BME280;9455;54.302;10.124;2024-03-22T06:06:18;101235.16;;;9.42;100.00
18652;BME280;9455;54.302;10.124;2024-03-22T06:08:47;101236.03;;;9.30;100.00
18652;BME280;9455;54.302;10.124;2024-03-22T06:11:17;101230.28;;;9.36;100.00
18652;BME280;9455;54.302;10.124;2024-03-22T06:13:44;101230.28;;;9.36;100.00
18652;BME280;9455;54.302;10.124;2024-03-22T06:16:10;101226.41;;;9.40;100.00
18652;BME280;9455;54.302;10.124;2024-03-22T06:18:36;101225.97;;;9.46;100.00
18652;BME280;9455;54.302;10.124;2024-03-22T06:21:03;101226.19;;;9.43;100.00
18652;BME280;9455;54.302;10.124;2024-03-22T06:23:31;101210.97;;;9.45;100.00
18652;BME280;9455;54.302;10.124;2024-03-22T06:25:57;101203.44;;;9.39;100.00
18652;BME280;9455;54.302;10.124;2024-03-22T06:28:27;101198.16;;;9.50;100.00
18652;BME280;9455;54.302;10.124;2024-03-22T06:30:53;101192.44;;;9.44;100.00
18652;BME280;9455;54.302;10.124;2024-03-22T06:33:19;101192.69;;;9.52;100.00
18652;BME280;9455;54.302;10.124;2024-03-22T06:35:45;101193.03;;;9.47;100.00
18652;BME280;9455;54.302;10.124;2024-03-22T06:38:12;101190.16;;;9.50;100.00
18652;BME280;9455;54.302;10.124;2024-03-22T06:40:39;101181.69;;;9.45;100.00
18652;BME280;9455;54.302;10.124;2024-03-22T06:43:06;101177.69;;;9.40;100.00
18652;BME280;9455;54.302;10.124;2024-03-22T06:45:31;101169.16;;;9.35;100.00
18652;BME280;9455;54.302;10.124;2024-03-22T06:47:58;101167.59;;;9.32;100.00
18652;BME280;9455;54.302;10.124;2024-03-22T06:50:24;101171.94;;;9.33;100.00
18652;BME280;9455;54.302;10.124;2024-03-22T06:52:50;101153.53;;;9.30;100.00
18652;BME280;9455;54.302;10.124;2024-03-22T06:55:17;101154.75;;;9.26;100.00
18652;BME280;9455;54.302;10.124;2024-03-22T06:57:46;101163.25;;;9.31;100.00
18652;BME280;9455;54.302;10.124;2024-03-22T07:00:13;101167.22;;;9.26;100.00
18652;BME280;9455;54.302;10.124;2024-03-22T07:02:39;101158.97;;;9.29;100.00
18652;BME280;9455;54.302;10.124;2024-03-22T07:05:06;101161.50;;;9.19;100.00
18652;BME280;9455;54.302;10.124;2024-03-22T07:07:32;101168.78;;;9.28;100.00
18652;BME280;9455;54.302;10.124;2024-03-22T07:09:58;101164.56;;;9.26;100.00
18652;BME280;9455;54.302;10.124;2024-03-22T07:12:25;101166.16;;;9.39;100.00
18652;BME280;9455;54.302;10.124;2024-03-22T07:14:52;101176.59;;;9.42;100.00
18652;BME280;9455;54.302;10.124;2024-03-22T07:17:18;101170.38;;;9.31;100.00
18652;BME280;9455;54.302;10.124;2024-03-22T07:19:49;101166.03;;;9.30;100.00
18652;BME280;9455;54.302;10.124;2024-03-22T07:22:16;101180.91;;;9.32;100.00
18652;BME280;9455;54.302;10.124;2024-03-22T07:24:41;101181.16;;;9.40;100.00
18652;BME280;9455;54.302;10.124;2024-03-22T07:27:08;101175.94;;;9.39;100.00
18652;BME280;9455;54.302;10.124;2024-03-22T07:29:34;101172.25;;;9.41;100.00
18652;BME280;9455;54.302;10.124;2024-03-22T07:32:02;101182.78;;;9.43;100.00
18652;BME280;9455;54.302;10.124;2024-03-22T07:34:28;101178.91;;;9.47;100.00
18652;BME280;9455;54.302;10.124;2024-03-22T07:36:55;101178.03;;;9.46;100.00
18652;BME280;9455;54.302;10.124;2024-03-22T07:39:21;101175.03;;;9.51;100.00
18652;BME280;9455;54.302;10.124;2024-03-22T07:41:48;101166.81;;;9.43;100.00
18652;BME280;9455;54.302;10.124;2024-03-22T07:44:14;101151.66;;;9.43;100.00
18652;BME280;9455;54.302;10.124;2024-03-22T07:46:43;101137.03;;;9.49;100.00
18652;BME280;9455;54.302;10.124;2024-03-22T07:49:11;101145.75;;;9.51;100.00
18652;BME280;9455;54.302;10.124;2024-03-22T07:51:37;101167.78;;;9.53;100.00
18652;BME280;9455;54.302;10.124;2024-03-22T07:54:03;101167.16;;;9.49;100.00
18652;BME280;9455;54.302;10.124;2024-03-22T07:56:30;101157.75;;;9.56;100.00
18652;BME280;9455;54.302;10.124;2024-03-22T07:58:55;101154.88;;;9.59;100.00
18652;BME280;9455;54.302;10.124;2024-03-22T08:01:22;101170.09;;;9.57;100.00
18652;BME280;9455;54.302;10.124;2024-03-22T08:03:48;101175.88;;;9.51;100.00
18652;BME280;9455;54.302;10.124;2024-03-22T08:06:16;101167.41;;;9.46;100.00
18652;BME280;9455;54.302;10.124;2024-03-22T08:08:42;101164.53;;;9.60;100.00
18652;BME280;9455;54.302;10.124;2024-03-22T08:11:08;101153.13;;;9.47;100.00
18652;BME280;9455;54.302;10.124;2024-03-22T08:13:34;101150.75;;;9.66;100.00
18652;BME280;9455;54.302;10.124;2024-03-22T08:16:01;101148.91;;;9.56;100.00
18652;BME280;9455;54.302;10.124;2024-03-22T08:18:27;101166.75;;;9.66;100.00
18652;BME280;9455;54.302;10.124;2024-03-22T08:20:54;101154.34;;;9.54;100.00
18652;BME280;9455;54.302;10.124;2024-03-22T08:23:22;101160.31;;;9.58;100.00
18652;BME280;9455;54.302;10.124;2024-03-22T08:25:48;101162.34;;;9.54;100.00
18652;BME280;9455;54.302;10.124;2024-03-22T08:28:15;101157.75;;;9.56;100.00
18652;BME280;9455;54.302;10.124;2024-03-22T08:30:41;101158.59;;;9.57;100.00
18652;BME280;9455;54.302;10.124;2024-03-22T08:33:08;101151.56;;;9.56;100.00
18652;BME280;9455;54.302;10.124;2024-03-22T08:35:34;101150.84;;;9.54;100.00
18652;BME280;9455;54.302;10.124;2024-03-22T08:38:01;101161.38;;;9.55;100.00
18652;BME280;9455;54.302;10.124;2024-03-22T08:40:28;101153.41;;;9.55;100.00
18652;BME280;9455;54.302;10.124;2024-03-22T08:42:54;101153.28;;;9.57;100.00
18652;BME280;9455;54.302;10.124;2024-03-22T08:45:20;101151.19;;;9.49;100.00
18652;BME280;9455;54.302;10.124;2024-03-22T08:47:47;101137.69;;;9.63;100.00
18652;BME280;9455;54.302;10.124;2024-03-22T08:50:14;101128.34;;;9.58;100.00
18652;BME280;9455;54.302;10.124;2024-03-22T08:52:40;101124.25;;;9.65;100.00
18652;BME280;9455;54.302;10.124;2024-03-22T08:55:07;101127.28;;;9.71;100.00
18652;BME280;9455;54.302;10.124;2024-03-22T08:57:34;101117.59;;;9.70;100.00
18652;BME280;9455;54.302;10.124;2024-03-22T09:00:00;101117.25;;;9.64;100.00
18652;BME280;9455;54.302;10.124;2024-03-22T09:02:26;101123.38;;;9.64;100.00
18652;BME280;9455;54.302;10.124;2024-03-22T09:04:53;101107.66;;;9.61;100.00
18652;BME280;9455;54.302;10.124;2024-03-22T09:07:19;101109.97;;;9.66;100.00
18652;BME280;9455;54.302;10.124;2024-03-22T09:09:46;101107.66;;;9.61;100.00
18652;BME280;9455;54.302;10.124;2024-03-22T09:12:12;101105.72;;;9.52;100.00
18652;BME280;9455;54.302;10.124;2024-03-22T09:14:40;101111.06;;;9.63;100.00
18652;BME280;9455;54.302;10.124;2024-03-22T09:17:05;101101.16;;;9.65;100.00
18652;BME280;9455;54.302;10.124;2024-03-22T09:19:32;101103.81;;;9.65;100.00
18652;BME280;9455;54.302;10.124;2024-03-22T09:21:58;101091.44;;;9.64;100.00
18652;BME280;9455;54.302;10.124;2024-03-22T09:24:24;101089.75;;;9.63;100.00
18652;BME280;9455;54.302;10.124;2024-03-22T09:26:50;101079.56;;;9.68;100.00
18652;BME280;9455;54.302;10.124;2024-03-22T09:29:16;101073.31;;;9.69;100.00
18652;BME280;9455;54.302;10.124;2024-03-22T09:31:44;101074.75;;;9.73;100.00
18652;BME280;9455;54.302;10.124;2024-03-22T09:34:12;101077.41;;;9.73;100.00
18652;BME280;9455;54.302;10.124;2024-03-22T09:36:37;101075.09;;;9.80;100.00
18652;BME280;9455;54.302;10.124;2024-03-22T09:39:04;101065.06;;;9.83;100.00
18652;BME280;9455;54.302;10.124;2024-03-22T09:41:32;101069.91;;;9.89;100.00
18652;BME280;9455;54.302;10.124;2024-03-22T09:44:00;101076.69;;;9.93;100.00
18652;BME280;9455;54.302;10.124;2024-03-22T09:46:28;101077.63;;;10.03;100.00
18652;BME280;9455;54.302;10.124;2024-03-22T09:48:58;101079.97;;;10.08;100.00
18652;BME280;9455;54.302;10.124;2024-03-22T09:51:24;101061.53;;;9.94;100.00
18652;BME280;9455;54.302;10.124;2024-03-22T09:53:52;101061.53;;;9.94;100.00
18652;BME280;9455;54.302;10.124;2024-03-22T09:56:20;101058.53;;;9.98;100.00
18652;BME280;9455;54.302;10.124;2024-03-22T09:58:47;101055.50;;;10.03;100.00
18652;BME280;9455;54.302;10.124;2024-03-22T10:01:13;101063.38;;;10.04;100.00
18652;BME280;9455;54.302;10.124;2024-03-22T10:03:40;101050.06;;;10.04;100.00
18652;BME280;9455;54.302;10.124;2024-03-22T10:06:07;101046.53;;;10.04;100.00
18652;BME280;9455;54.302;10.124;2024-03-22T10:08:34;101053.44;;;10.06;100.00
18652;BME280;9455;54.302;10.124;2024-03-22T10:11:01;101050.78;;;10.06;100.00
18652;BME280;9455;54.302;10.124;2024-03-22T10:13:28;101055.16;;;10.07;100.00
18652;BME280;9455;54.302;10.124;2024-03-22T10:15:54;101038.66;;;10.02;100.00
18652;BME280;9455;54.302;10.124;2024-03-22T10:18:21;101047.19;;;10.07;100.00
18652;BME280;9455;54.302;10.124;2024-03-22T10:20:47;101057.84;;;10.07;100.00
18652;BME280;9455;54.302;10.124;2024-03-22T10:23:26;101060.81;;;10.03;100.00
18652;BME280;9455;54.302;10.124;2024-03-22T10:25:52;101040.00;;;9.97;100.00
18652;BME280;9455;54.302;10.124;2024-03-22T10:28:19;101051.41;;;9.88;100.00
18652;BME280;9455;54.302;10.124;2024-03-22T10:30:45;101043.88;;;9.82;100.00
18652;BME280;9455;54.302;10.124;2024-03-22T10:33:14;101052.47;;;9.85;100.00
18652;BME280;9455;54.302;10.124;2024-03-22T10:35:41;101052.00;;;9.91;100.00
18652;BME280;9455;54.302;10.124;2024-03-22T10:38:07;101042.78;;;9.84;100.00
18652;BME280;9455;54.302;10.124;2024-03-22T10:40:37;101056.34;;;9.81;100.00
18652;BME280;9455;54.302;10.124;2024-03-22T10:43:05;101048.59;;;9.78;100.00
18652;BME280;9455;54.302;10.124;2024-03-22T10:45:31;101047.38;;;9.82;100.00
18652;BME280;9455;54.302;10.124;2024-03-22T10:47:58;101048.59;;;9.78;100.00
18652;BME280;9455;54.302;10.124;2024-03-22T10:50:28;101053.44;;;9.95;100.00
18652;BME280;9455;54.302;10.124;2024-03-22T10:52:58;101044.97;;;9.90;100.00
18652;BME280;9455;54.302;10.124;2024-03-22T10:55:28;101044.97;;;10.01;100.00
18652;BME280;9455;54.302;10.124;2024-03-22T10:57:58;101035.75;;;9.94;100.00
18652;BME280;9455;54.302;10.124;2024-03-22T11:00:27;101036.53;;;10.07;100.00
18652;BME280;9455;54.302;10.124;2024-03-22T11:02:55;101038.41;;;10.05;100.00
18652;BME280;9455;54.302;10.124;2024-03-22T11:05:21;101035.00;;;10.03;100.00
18652;BME280;9455;54.302;10.124;2024-03-22T11:07:59;101024.88;;;10.08;100.00
18652;BME280;9455;54.302;10.124;2024-03-22T11:10:28;101040.13;;;10.06;100.00
18652;BME280;9455;54.302;10.124;2024-03-22T11:12:55;101036.00;;;9.91;100.00
18652;BME280;9455;54.302;10.124;2024-03-22T11:15:23;101041.22;;;9.93;100.00
18652;BME280;9455;54.302;10.124;2024-03-22T11:17:50;101046.44;;;9.83;100.00
18652;BME280;9455;54.302;10.124;2024-03-22T11:20:16;101044.59;;;9.84;100.00
18652;BME280;9455;54.302;10.124;2024-03-22T11:22:43;101028.75;;;9.93;100.00
18652;BME280;9455;54.302;10.124;2024-03-22T11:25:09;101036.03;;;9.80;100.00
18652;BME280;9455;54.302;10.124;2024-03-22T11:27:36;101035.03;;;9.81;100.00
18652;BME280;9455;54.302;10.124;2024-03-22T11:30:02;101031.66;;;9.79;100.00
18652;BME280;9455;54.302;10.124;2024-03-22T11:32:31;101034.19;;;9.81;100.00
18652;BME280;9455;54.302;10.124;2024-03-22T11:35:00;101024.50;;;9.80;100.00
18652;BME280;9455;54.302;10.124;2024-03-22T11:37:27;101025.84;;;9.85;100.00
18652;BME280;9455;54.302;10.124;2024-03-22T11:39:53;101020.16;;;9.79;100.00
18652;BME280;9455;54.302;10.124;2024-03-22T11:42:20;101021.13;;;9.89;100.00
18652;BME280;9455;54.302;10.124;2024-03-22T11:44:46;101016.78;;;9.88;100.00
18652;BME280;9455;54.302;10.124;2024-03-22T11:47:14;101017.97;;;9.84;100.00
18652;BME280;9455;54.302;10.124;2024-03-22T11:49:41;101023.06;;;9.87;100.00
18652;BME280;9455;54.302;10.124;2024-03-22T11:52:08;101022.94;;;9.66;100.00
18652;BME280;9455;54.302;10.124;2024-03-22T11:54:34;101011.31;;;9.67;100.00
18652;BME280;9455;54.302;10.124;2024-03-22T11:57:02;101012.75;;;9.71;100.00
18652;BME280;9455;54.302;10.124;2024-03-22T11:59:29;101002.88;;;9.62;100.00
18652;BME280;9455;54.302;10.124;2024-03-22T12:01:56;101006.09;;;9.77;100.00
18652;BME280;9455;54.302;10.124;2024-03-22T12:04:22;101009.50;;;9.68;100.00
18652;BME280;9455;54.302;10.124;2024-03-22T12:06:50;101012.41;;;9.76;100.00
18652;BME280;9455;54.302;10.124;2024-03-22T12:09:16;101002.72;;;9.75;100.00
18652;BME280;9455;54.302;10.124;2024-03-22T12:11:42;100993.66;;;9.66;100.00
18652;BME280;9455;54.302;10.124;2024-03-22T12:14:08;101006.00;;;9.67;100.00
18652;BME280;9455;54.302;10.124;2024-03-22T12:16:35;100998.50;;;9.72;100.00
18652;BME280;9455;54.302;10.124;2024-03-22T12:19:01;101006.97;;;9.55;100.00
18652;BME280;9455;54.302;10.124;2024-03-22T12:21:28;100999.47;;;9.49;100.00
18652;BME280;9455;54.302;10.124;2024-03-22T12:23:55;100997.78;;;9.59;100.00
18652;BME280;9455;54.302;10.124;2024-03-22T12:26:22;100999.69;;;9.57;100.00
18652;BME280;9455;54.302;10.124;2024-03-22T12:28:47;101006.59;;;9.49;100.00
18652;BME280;9455;54.302;10.124;2024-03-22T12:31:17;101004.28;;;9.44;100.00
18652;BME280;9455;54.302;10.124;2024-03-22T12:33:42;101003.81;;;9.50;100.00
18652;BME280;9455;54.302;10.124;2024-03-22T12:36:09;101002.84;;;9.40;100.00
18652;BME280;9455;54.302;10.124;2024-03-22T12:38:35;101013.88;;;9.58;100.00
18652;BME280;9455;54.302;10.124;2024-03-22T12:41:03;101015.91;;;9.54;100.00
18652;BME280;9455;54.302;10.124;2024-03-22T12:43:29;101010.34;;;9.57;100.00
18652;BME280;9455;54.302;10.124;2024-03-22T12:45:55;101016.78;;;9.55;100.00
18652;BME280;9455;54.302;10.124;2024-03-22T12:48:21;101010.22;;;9.48;100.00